Arnold Palmer Regional Airport
KLBE : now visible

Airfield :











YOU CAN JOIN US ON...

 
LOGIN :

Register | Disclaimer

   EN    FR    IT 

 









Legend :    VFR   Marginal VFR   IFR   Intensive IFR   Very Intensive IFR
Visi :
Ceiling :
>= 8 km
>= 3000ft
5 to 8 km
1000 to 3000 ft
1500m to 5 km
500 to 1000 ft
800 to 1500m
200 to 500 ft
< 800m
< 200 ft
Symbols :   Thunderstorms  Fog  Heavy snow  Heavy precipitations  Wind > 20 kt







- Airport Elevation : 1199 ft
- IATA code : LBE


KLBE - Arnold Palmer Regional

CURRENT METAR :
  • 210151Z 21009KT 10SM BKN100 11/09 A2974

EXPIRED METARs :
  • 210051Z 21009KT 10SM BKN100 11/09 A2974
  • 202351Z 21018KT 10SM BKN090 12/11 A2970

TAF KLBE
Valid from the 21 at 00:00 until the 22 at 00:00 UTC


202334Z 2100/2124 27006KT P6SM VCSH BKN070
FM210400 21004KT P6SM OVC015
TEMPO 2106/2107 6SM -RA OVC007
FM211500 26010KT P6SM BKN015
FM212200 26006KT P6SM OVC050
KZOB FIR / North America



MET'MAP, your aeronautical weather chart ! - Copyright ORBIFLY December 2007 - Disclaimer

ORBIFLY MET'MAP TEAM :

Programming & Development : Alexandra Zaïnal
Concept & Development : Baudouin d'Aumeries
Co-Development & Prog : Marc-Olivier Méhu
Technical & hardware support : Manuel Goepfert

Contact : metmap@orbifly.com




SOURCES & CREDITS :

   NOAA       Earth
Advisory